sensor_id;sensor_type;location;lat;lon;timestamp;P1;durP1;ratioP1;P2;durP2;ratioP2
14883;SDS011;7534;50.762;7.000;2022-12-17T00:04:30;51.73;;;18.87;;
14883;SDS011;7534;50.762;7.000;2022-12-17T00:07:14;57.53;;;20.30;;
14883;SDS011;7534;50.762;7.000;2022-12-17T00:09:58;53.27;;;20.03;;
14883;SDS011;7534;50.762;7.000;2022-12-17T00:12:45;57.43;;;21.30;;
14883;SDS011;7534;50.762;7.000;2022-12-17T00:15:30;53.60;;;20.70;;
14883;SDS011;7534;50.762;7.000;2022-12-17T00:18:15;48.73;;;21.80;;
14883;SDS011;7534;50.762;7.000;2022-12-17T00:20:59;46.47;;;18.93;;
14883;SDS011;7534;50.762;7.000;2022-12-17T00:23:47;51.97;;;18.77;;
14883;SDS011;7534;50.762;7.000;2022-12-17T00:26:32;51.60;;;19.23;;
14883;SDS011;7534;50.762;7.000;2022-12-17T00:29:16;54.40;;;19.07;;
14883;SDS011;7534;50.762;7.000;2022-12-17T00:32:01;40.07;;;17.67;;
14883;SDS011;7534;50.762;7.000;2022-12-17T00:34:46;48.03;;;17.20;;
14883;SDS011;7534;50.762;7.000;2022-12-17T00:37:30;49.97;;;19.00;;
14883;SDS011;7534;50.762;7.000;2022-12-17T00:40:15;47.27;;;17.73;;
14883;SDS011;7534;50.762;7.000;2022-12-17T00:45:55;47.47;;;17.97;;
14883;SDS011;7534;50.762;7.000;2022-12-17T00:48:40;51.70;;;18.67;;
14883;SDS011;7534;50.762;7.000;2022-12-17T00:51:25;43.73;;;18.73;;
14883;SDS011;7534;50.762;7.000;2022-12-17T00:54:23;43.07;;;19.10;;
14883;SDS011;7534;50.762;7.000;2022-12-17T00:57:07;51.87;;;18.37;;
14883;SDS011;7534;50.762;7.000;2022-12-17T00:59:52;49.37;;;18.30;;
14883;SDS011;7534;50.762;7.000;2022-12-17T01:02:37;47.43;;;18.87;;
14883;SDS011;7534;50.762;7.000;2022-12-17T01:05:22;54.30;;;19.23;;
14883;SDS011;7534;50.762;7.000;2022-12-17T01:08:10;48.00;;;17.87;;
14883;SDS011;7534;50.762;7.000;2022-12-17T01:11:02;43.83;;;16.67;;
14883;SDS011;7534;50.762;7.000;2022-12-17T01:13:51;44.20;;;17.87;;
14883;SDS011;7534;50.762;7.000;2022-12-17T01:16:36;47.77;;;18.53;;
14883;SDS011;7534;50.762;7.000;2022-12-17T01:19:21;50.37;;;17.17;;
14883;SDS011;7534;50.762;7.000;2022-12-17T01:22:05;49.33;;;18.97;;
14883;SDS011;7534;50.762;7.000;2022-12-17T01:24:50;56.00;;;19.60;;
14883;SDS011;7534;50.762;7.000;2022-12-17T01:27:34;44.90;;;18.23;;
14883;SDS011;7534;50.762;7.000;2022-12-17T01:30:18;46.20;;;17.63;;
14883;SDS011;7534;50.762;7.000;2022-12-17T01:33:03;51.13;;;18.10;;
14883;SDS011;7534;50.762;7.000;2022-12-17T01:35:52;49.60;;;17.53;;
14883;SDS011;7534;50.762;7.000;2022-12-17T01:38:38;48.70;;;19.27;;
14883;SDS011;7534;50.762;7.000;2022-12-17T01:41:23;45.97;;;17.07;;
14883;SDS011;7534;50.762;7.000;2022-12-17T01:47:38;47.90;;;17.47;;
14883;SDS011;7534;50.762;7.000;2022-12-17T01:50:36;45.13;;;18.00;;
14883;SDS011;7534;50.762;7.000;2022-12-17T01:53:28;42.77;;;16.67;;
14883;SDS011;7534;50.762;7.000;2022-12-17T01:56:23;50.73;;;18.00;;
14883;SDS011;7534;50.762;7.000;2022-12-17T01:59:10;45.80;;;17.83;;
14883;SDS011;7534;50.762;7.000;2022-12-17T02:01:57;42.87;;;17.07;;
14883;SDS011;7534;50.762;7.000;2022-12-17T02:04:41;45.40;;;17.40;;
14883;SDS011;7534;50.762;7.000;2022-12-17T02:10:43;44.50;;;16.97;;
14883;SDS011;7534;50.762;7.000;2022-12-17T02:13:48;41.33;;;16.60;;
14883;SDS011;7534;50.762;7.000;2022-12-17T02:16:58;46.73;;;17.63;;
14883;SDS011;7534;50.762;7.000;2022-12-17T02:19:54;41.47;;;16.77;;
14883;SDS011;7534;50.762;7.000;2022-12-17T02:23:16;45.30;;;17.30;;
14883;SDS011;7534;50.762;7.000;2022-12-17T02:26:29;41.33;;;16.80;;
14883;SDS011;7534;50.762;7.000;2022-12-17T02:29:23;47.40;;;16.60;;
14883;SDS011;7534;50.762;7.000;2022-12-17T02:32:11;44.20;;;16.37;;
14883;SDS011;7534;50.762;7.000;2022-12-17T02:34:57;40.63;;;16.33;;
14883;SDS011;7534;50.762;7.000;2022-12-17T02:37:49;43.57;;;16.10;;
14883;SDS011;7534;50.762;7.000;2022-12-17T02:40:35;44.30;;;16.27;;
14883;SDS011;7534;50.762;7.000;2022-12-17T02:43:22;43.43;;;16.37;;
14883;SDS011;7534;50.762;7.000;2022-12-17T02:46:08;46.93;;;17.17;;
14883;SDS011;7534;50.762;7.000;2022-12-17T02:48:53;40.13;;;15.17;;
14883;SDS011;7534;50.762;7.000;2022-12-17T02:51:37;44.00;;;16.93;;
14883;SDS011;7534;50.762;7.000;2022-12-17T02:54:27;39.83;;;15.97;;
14883;SDS011;7534;50.762;7.000;2022-12-17T02:57:29;41.70;;;15.43;;
14883;SDS011;7534;50.762;7.000;2022-12-17T03:00:14;43.37;;;16.00;;
14883;SDS011;7534;50.762;7.000;2022-12-17T03:02:58;42.23;;;16.30;;
14883;SDS011;7534;50.762;7.000;2022-12-17T03:05:43;42.00;;;15.90;;
14883;SDS011;7534;50.762;7.000;2022-12-17T03:08:27;40.53;;;15.67;;
14883;SDS011;7534;50.762;7.000;2022-12-17T03:11:11;43.17;;;16.07;;
14883;SDS011;7534;50.762;7.000;2022-12-17T03:13:55;38.60;;;16.10;;
14883;SDS011;7534;50.762;7.000;2022-12-17T03:16:39;51.57;;;16.73;;
14883;SDS011;7534;50.762;7.000;2022-12-17T03:19:23;44.20;;;16.87;;
14883;SDS011;7534;50.762;7.000;2022-12-17T03:22:07;40.73;;;14.57;;
14883;SDS011;7534;50.762;7.000;2022-12-17T03:24:51;40.20;;;15.50;;
14883;SDS011;7534;50.762;7.000;2022-12-17T03:27:35;44.27;;;15.93;;
14883;SDS011;7534;50.762;7.000;2022-12-17T03:30:20;43.07;;;16.13;;
14883;SDS011;7534;50.762;7.000;2022-12-17T03:33:06;42.93;;;16.20;;
14883;SDS011;7534;50.762;7.000;2022-12-17T03:35:52;39.33;;;15.37;;
14883;SDS011;7534;50.762;7.000;2022-12-17T03:38:37;42.87;;;14.20;;
14883;SDS011;7534;50.762;7.000;2022-12-17T03:41:21;44.00;;;16.10;;
14883;SDS011;7534;50.762;7.000;2022-12-17T03:44:05;43.23;;;15.23;;
14883;SDS011;7534;50.762;7.000;2022-12-17T03:46:50;39.33;;;16.40;;
14883;SDS011;7534;50.762;7.000;2022-12-17T03:49:34;36.80;;;14.53;;
14883;SDS011;7534;50.762;7.000;2022-12-17T03:52:18;43.47;;;15.17;;
14883;SDS011;7534;50.762;7.000;2022-12-17T03:55:03;42.30;;;15.37;;
14883;SDS011;7534;50.762;7.000;2022-12-17T03:57:48;39.03;;;13.70;;
14883;SDS011;7534;50.762;7.000;2022-12-17T04:00:33;39.30;;;15.07;;
14883;SDS011;7534;50.762;7.000;2022-12-17T04:03:17;41.63;;;15.80;;
14883;SDS011;7534;50.762;7.000;2022-12-17T04:06:01;43.53;;;14.60;;
14883;SDS011;7534;50.762;7.000;2022-12-17T04:08:45;42.83;;;15.27;;
14883;SDS011;7534;50.762;7.000;2022-12-17T04:11:29;41.57;;;15.47;;
14883;SDS011;7534;50.762;7.000;2022-12-17T04:14:13;42.37;;;15.20;;
14883;SDS011;7534;50.762;7.000;2022-12-17T04:17:11;39.73;;;14.50;;
14883;SDS011;7534;50.762;7.000;2022-12-17T04:19:55;39.97;;;14.30;;
14883;SDS011;7534;50.762;7.000;2022-12-17T04:22:39;42.90;;;16.00;;
14883;SDS011;7534;50.762;7.000;2022-12-17T04:25:23;46.80;;;15.63;;
14883;SDS011;7534;50.762;7.000;2022-12-17T04:28:07;46.27;;;14.63;;
14883;SDS011;7534;50.762;7.000;2022-12-17T04:30:51;39.70;;;15.07;;
14883;SDS011;7534;50.762;7.000;2022-12-17T04:33:37;43.33;;;16.10;;
14883;SDS011;7534;50.762;7.000;2022-12-17T04:36:21;41.23;;;15.80;;
14883;SDS011;7534;50.762;7.000;2022-12-17T04:39:05;38.00;;;14.50;;
14883;SDS011;7534;50.762;7.000;2022-12-17T04:41:49;44.10;;;16.07;;
14883;SDS011;7534;50.762;7.000;2022-12-17T04:44:33;38.40;;;14.07;;
14883;SDS011;7534;50.762;7.000;2022-12-17T04:47:17;42.10;;;15.33;;
14883;SDS011;7534;50.762;7.000;2022-12-17T04:50:01;41.27;;;15.43;;
14883;SDS011;7534;50.762;7.000;2022-12-17T04:52:46;37.50;;;14.07;;
14883;SDS011;7534;50.762;7.000;2022-12-17T04:55:31;39.63;;;14.30;;
14883;SDS011;7534;50.762;7.000;2022-12-17T04:58:15;41.83;;;14.20;;
14883;SDS011;7534;50.762;7.000;2022-12-17T05:00:59;40.33;;;14.80;;
14883;SDS011;7534;50.762;7.000;2022-12-17T05:03:43;46.40;;;15.77;;
14883;SDS011;7534;50.762;7.000;2022-12-17T05:06:27;42.47;;;15.87;;
14883;SDS011;7534;50.762;7.000;2022-12-17T05:09:12;42.10;;;16.10;;
14883;SDS011;7534;50.762;7.000;2022-12-17T05:11:56;32.30;;;13.30;;
14883;SDS011;7534;50.762;7.000;2022-12-17T05:14:40;31.60;;;13.03;;
14883;SDS011;7534;50.762;7.000;2022-12-17T05:17:24;31.73;;;14.10;;
14883;SDS011;7534;50.762;7.000;2022-12-17T05:20:08;39.97;;;15.27;;
14883;SDS011;7534;50.762;7.000;2022-12-17T05:22:53;40.30;;;15.00;;
14883;SDS011;7534;50.762;7.000;2022-12-17T05:25:37;44.50;;;15.67;;
14883;SDS011;7534;50.762;7.000;2022-12-17T05:28:21;30.97;;;13.00;;
14883;SDS011;7534;50.762;7.000;2022-12-17T05:31:05;27.07;;;12.40;;
14883;SDS011;7534;50.762;7.000;2022-12-17T05:33:49;24.40;;;10.80;;
14883;SDS011;7534;50.762;7.000;2022-12-17T05:36:33;25.80;;;10.73;;
14883;SDS011;7534;50.762;7.000;2022-12-17T05:39:17;24.57;;;10.93;;
14883;SDS011;7534;50.762;7.000;2022-12-17T05:42:01;22.33;;;11.20;;
14883;SDS011;7534;50.762;7.000;2022-12-17T05:44:45;24.80;;;11.80;;
14883;SDS011;7534;50.762;7.000;2022-12-17T05:47:30;24.57;;;10.80;;
14883;SDS011;7534;50.762;7.000;2022-12-17T05:50:14;26.37;;;11.03;;
14883;SDS011;7534;50.762;7.000;2022-12-17T05:53:05;26.97;;;13.87;;
14883;SDS011;7534;50.762;7.000;2022-12-17T05:55:49;28.57;;;13.13;;
14883;SDS011;7534;50.762;7.000;2022-12-17T05:58:35;31.80;;;13.40;;
14883;SDS011;7534;50.762;7.000;2022-12-17T06:01:20;27.83;;;12.40;;
14883;SDS011;7534;50.762;7.000;2022-12-17T06:04:04;32.30;;;12.97;;
14883;SDS011;7534;50.762;7.000;2022-12-17T06:06:48;26.93;;;13.00;;
14883;SDS011;7534;50.762;7.000;2022-12-17T06:09:33;32.43;;;13.70;;
14883;SDS011;7534;50.762;7.000;2022-12-17T06:12:17;31.83;;;13.73;;
14883;SDS011;7534;50.762;7.000;2022-12-17T06:15:03;33.73;;;13.73;;
14883;SDS011;7534;50.762;7.000;2022-12-17T06:17:51;26.93;;;12.40;;
14883;SDS011;7534;50.762;7.000;2022-12-17T06:20:40;31.70;;;13.67;;
14883;SDS011;7534;50.762;7.000;2022-12-17T06:23:24;28.20;;;12.47;;
14883;SDS011;7534;50.762;7.000;2022-12-17T06:26:08;29.43;;;13.20;;
14883;SDS011;7534;50.762;7.000;2022-12-17T06:28:53;32.93;;;12.57;;
14883;SDS011;7534;50.762;7.000;2022-12-17T06:31:37;32.63;;;12.93;;
14883;SDS011;7534;50.762;7.000;2022-12-17T06:34:21;36.33;;;12.93;;
14883;SDS011;7534;50.762;7.000;2022-12-17T06:37:05;30.43;;;12.77;;
14883;SDS011;7534;50.762;7.000;2022-12-17T06:39:49;25.93;;;11.43;;
14883;SDS011;7534;50.762;7.000;2022-12-17T06:42:34;27.00;;;12.53;;
14883;SDS011;7534;50.762;7.000;2022-12-17T06:45:18;25.33;;;12.33;;
14883;SDS011;7534;50.762;7.000;2022-12-17T06:48:03;29.03;;;10.80;;
14883;SDS011;7534;50.762;7.000;2022-12-17T06:50:54;20.07;;;9.70;;
14883;SDS011;7534;50.762;7.000;2022-12-17T06:53:39;18.70;;;8.17;;
14883;SDS011;7534;50.762;7.000;2022-12-17T06:56:25;19.13;;;8.07;;
14883;SDS011;7534;50.762;7.000;2022-12-17T06:59:10;18.33;;;8.13;;
14883;SDS011;7534;50.762;7.000;2022-12-17T07:01:55;14.57;;;7.90;;
14883;SDS011;7534;50.762;7.000;2022-12-17T07:04:39;15.90;;;7.83;;
14883;SDS011;7534;50.762;7.000;2022-12-17T07:07:24;17.30;;;7.87;;
14883;SDS011;7534;50.762;7.000;2022-12-17T07:10:08;21.33;;;8.40;;
14883;SDS011;7534;50.762;7.000;2022-12-17T07:12:52;15.93;;;8.33;;
14883;SDS011;7534;50.762;7.000;2022-12-17T07:15:36;20.33;;;8.90;;
14883;SDS011;7534;50.762;7.000;2022-12-17T07:18:20;19.93;;;8.77;;
14883;SDS011;7534;50.762;7.000;2022-12-17T07:21:04;22.83;;;8.63;;
14883;SDS011;7534;50.762;7.000;2022-12-17T07:23:48;20.87;;;8.90;;
14883;SDS011;7534;50.762;7.000;2022-12-17T07:26:32;21.83;;;9.10;;
14883;SDS011;7534;50.762;7.000;2022-12-17T07:29:17;16.60;;;8.67;;
14883;SDS011;7534;50.762;7.000;2022-12-17T07:32:01;20.83;;;8.87;;
14883;SDS011;7534;50.762;7.000;2022-12-17T07:34:45;22.07;;;9.13;;
14883;SDS011;7534;50.762;7.000;2022-12-17T07:37:29;23.03;;;10.10;;
14883;SDS011;7534;50.762;7.000;2022-12-17T07:40:13;21.33;;;9.93;;
14883;SDS011;7534;50.762;7.000;2022-12-17T07:42:58;24.43;;;9.90;;
14883;SDS011;7534;50.762;7.000;2022-12-17T07:45:42;20.60;;;9.40;;
14883;SDS011;7534;50.762;7.000;2022-12-17T07:48:26;20.60;;;8.93;;
14883;SDS011;7534;50.762;7.000;2022-12-17T07:51:11;20.17;;;10.33;;
14883;SDS011;7534;50.762;7.000;2022-12-17T07:54:11;21.37;;;9.67;;
14883;SDS011;7534;50.762;7.000;2022-12-17T07:56:56;21.53;;;10.07;;
14883;SDS011;7534;50.762;7.000;2022-12-17T07:59:40;22.80;;;10.87;;
14883;SDS011;7534;50.762;7.000;2022-12-17T08:02:25;25.20;;;9.83;;
14883;SDS011;7534;50.762;7.000;2022-12-17T08:05:09;21.27;;;10.20;;
14883;SDS011;7534;50.762;7.000;2022-12-17T08:07:53;18.80;;;10.13;;
14883;SDS011;7534;50.762;7.000;2022-12-17T08:10:37;20.07;;;10.13;;
14883;SDS011;7534;50.762;7.000;2022-12-17T08:13:22;17.77;;;8.93;;
14883;SDS011;7534;50.762;7.000;2022-12-17T08:16:06;21.43;;;9.27;;
14883;SDS011;7534;50.762;7.000;2022-12-17T08:18:50;20.20;;;9.10;;
14883;SDS011;7534;50.762;7.000;2022-12-17T08:21:34;19.43;;;9.23;;
14883;SDS011;7534;50.762;7.000;2022-12-17T08:24:18;22.33;;;9.80;;
14883;SDS011;7534;50.762;7.000;2022-12-17T08:27:02;16.40;;;7.57;;
14883;SDS011;7534;50.762;7.000;2022-12-17T08:29:46;18.80;;;7.80;;
14883;SDS011;7534;50.762;7.000;2022-12-17T08:32:30;17.27;;;7.87;;
14883;SDS011;7534;50.762;7.000;2022-12-17T08:35:14;16.60;;;8.30;;
14883;SDS011;7534;50.762;7.000;2022-12-17T08:38:02;15.33;;;7.83;;
14883;SDS011;7534;50.762;7.000;2022-12-17T08:40:49;16.40;;;8.77;;
14883;SDS011;7534;50.762;7.000;2022-12-17T08:43:33;16.83;;;8.43;;
14883;SDS011;7534;50.762;7.000;2022-12-17T08:46:17;19.47;;;9.67;;
14883;SDS011;7534;50.762;7.000;2022-12-17T08:49:01;16.67;;;8.43;;
14883;SDS011;7534;50.762;7.000;2022-12-17T08:51:45;24.03;;;10.30;;
14883;SDS011;7534;50.762;7.000;2022-12-17T08:54:29;18.67;;;9.47;;
14883;SDS011;7534;50.762;7.000;2022-12-17T08:57:14;20.27;;;9.70;;
14883;SDS011;7534;50.762;7.000;2022-12-17T08:59:58;22.77;;;9.50;;
14883;SDS011;7534;50.762;7.000;2022-12-17T09:02:42;17.77;;;9.50;;
14883;SDS011;7534;50.762;7.000;2022-12-17T09:05:27;21.03;;;9.00;;
14883;SDS011;7534;50.762;7.000;2022-12-17T09:08:11;17.70;;;8.43;;
14883;SDS011;7534;50.762;7.000;2022-12-17T09:10:58;22.13;;;9.27;;
14883;SDS011;7534;50.762;7.000;2022-12-17T09:13:43;23.20;;;10.13;;
14883;SDS011;7534;50.762;7.000;2022-12-17T09:16:28;24.00;;;10.23;;
14883;SDS011;7534;50.762;7.000;2022-12-17T09:19:12;20.73;;;8.50;;
14883;SDS011;7534;50.762;7.000;2022-12-17T09:21:57;19.57;;;8.67;;
14883;SDS011;7534;50.762;7.000;2022-12-17T09:24:41;20.03;;;9.93;;
14883;SDS011;7534;50.762;7.000;2022-12-17T09:27:25;21.67;;;9.63;;
14883;SDS011;7534;50.762;7.000;2022-12-17T09:30:10;19.57;;;8.83;;
14883;SDS011;7534;50.762;7.000;2022-12-17T09:32:55;19.43;;;8.27;;
14883;SDS011;7534;50.762;7.000;2022-12-17T09:35:39;19.27;;;9.00;;
14883;SDS011;7534;50.762;7.000;2022-12-17T09:38:23;18.83;;;8.60;;
14883;SDS011;7534;50.762;7.000;2022-12-17T09:44:23;22.83;;;9.73;;
14883;SDS011;7534;50.762;7.000;2022-12-17T09:47:36;21.90;;;9.97;;
14883;SDS011;7534;50.762;7.000;2022-12-17T09:50:34;21.50;;;9.80;;
14883;SDS011;7534;50.762;7.000;2022-12-17T09:53:25;22.90;;;9.83;;
14883;SDS011;7534;50.762;7.000;2022-12-17T09:56:22;22.63;;;10.30;;
14883;SDS011;7534;50.762;7.000;2022-12-17T09:59:18;19.07;;;9.23;;
14883;SDS011;7534;50.762;7.000;2022-12-17T10:02:12;26.23;;;11.27;;
14883;SDS011;7534;50.762;7.000;2022-12-17T10:05:03;23.67;;;9.50;;
14883;SDS011;7534;50.762;7.000;2022-12-17T10:07:56;22.27;;;10.20;;
14883;SDS011;7534;50.762;7.000;2022-12-17T10:10:43;19.73;;;9.07;;
14883;SDS011;7534;50.762;7.000;2022-12-17T10:13:29;19.57;;;9.80;;
14883;SDS011;7534;50.762;7.000;2022-12-17T10:16:18;18.27;;;8.53;;
14883;SDS011;7534;50.762;7.000;2022-12-17T10:19:15;20.20;;;9.60;;
14883;SDS011;7534;50.762;7.000;2022-12-17T10:22:15;19.97;;;8.50;;
14883;SDS011;7534;50.762;7.000;2022-12-17T10:25:06;16.97;;;8.93;;
14883;SDS011;7534;50.762;7.000;2022-12-17T10:28:06;19.13;;;9.27;;
14883;SDS011;7534;50.762;7.000;2022-12-17T10:30:56;16.70;;;8.00;;
14883;SDS011;7534;50.762;7.000;2022-12-17T10:33:43;16.50;;;8.27;;
14883;SDS011;7534;50.762;7.000;2022-12-17T10:36:29;17.80;;;8.10;;
14883;SDS011;7534;50.762;7.000;2022-12-17T10:39:14;16.13;;;7.83;;
14883;SDS011;7534;50.762;7.000;2022-12-17T10:42:16;15.47;;;7.60;;
14883;SDS011;7534;50.762;7.000;2022-12-17T10:45:39;14.37;;;7.67;;
14883;SDS011;7534;50.762;7.000;2022-12-17T10:48:22;15.37;;;7.43;;
14883;SDS011;7534;50.762;7.000;2022-12-17T10:54:27;12.47;;;6.83;;
14883;SDS011;7534;50.762;7.000;2022-12-17T10:57:25;15.20;;;7.50;;
14883;SDS011;7534;50.762;7.000;2022-12-17T11:06:43;14.83;;;7.33;;
14883;SDS011;7534;50.762;7.000;2022-12-17T11:12:31;16.47;;;8.23;;
14883;SDS011;7534;50.762;7.000;2022-12-17T11:15:42;15.90;;;7.00;;
14883;SDS011;7534;50.762;7.000;2022-12-17T11:21:53;14.87;;;7.97;;
14883;SDS011;7534;50.762;7.000;2022-12-17T11:24:43;12.10;;;7.13;;
14883;SDS011;7534;50.762;7.000;2022-12-17T11:34:17;12.50;;;7.27;;
14883;SDS011;7534;50.762;7.000;2022-12-17T11:37:25;13.60;;;7.30;;
14883;SDS011;7534;50.762;7.000;2022-12-17T11:40:43;14.43;;;7.13;;
14883;SDS011;7534;50.762;7.000;2022-12-17T11:44:02;14.77;;;7.33;;
14883;SDS011;7534;50.762;7.000;2022-12-17T11:50:30;13.30;;;7.00;;
14883;SDS011;7534;50.762;7.000;2022-12-17T11:56:40;12.37;;;6.93;;
14883;SDS011;7534;50.762;7.000;2022-12-17T12:06:15;12.60;;;7.27;;
14883;SDS011;7534;50.762;7.000;2022-12-17T12:09:27;12.77;;;6.57;;
14883;SDS011;7534;50.762;7.000;2022-12-17T12:13:20;12.17;;;7.17;;
14883;SDS011;7534;50.762;7.000;2022-12-17T12:16:15;11.73;;;6.73;;
14883;SDS011;7534;50.762;7.000;2022-12-17T12:19:19;13.30;;;7.07;;
14883;SDS011;7534;50.762;7.000;2022-12-17T12:25:37;12.70;;;7.87;;
14883;SDS011;7534;50.762;7.000;2022-12-17T12:28:42;13.65;;;10.02;;
14883;SDS011;7534;50.762;7.000;2022-12-17T12:34:43;14.13;;;7.23;;
14883;SDS011;7534;50.762;7.000;2022-12-17T12:37:28;12.63;;;6.97;;
14883;SDS011;7534;50.762;7.000;2022-12-17T12:40:16;11.77;;;6.90;;
14883;SDS011;7534;50.762;7.000;2022-12-17T12:43:36;10.60;;;6.13;;
14883;SDS011;7534;50.762;7.000;2022-12-17T12:46:40;9.90;;;5.73;;
14883;SDS011;7534;50.762;7.000;2022-12-17T12:52:56;12.60;;;7.47;;
14883;SDS011;7534;50.762;7.000;2022-12-17T12:55:42;11.57;;;7.37;;
14883;SDS011;7534;50.762;7.000;2022-12-17T12:58:30;12.53;;;7.10;;
14883;SDS011;7534;50.762;7.000;2022-12-17T13:01:17;13.27;;;7.20;;
14883;SDS011;7534;50.762;7.000;2022-12-17T13:04:22;14.77;;;7.03;;
14883;SDS011;7534;50.762;7.000;2022-12-17T13:07:25;13.40;;;7.03;;
14883;SDS011;7534;50.762;7.000;2022-12-17T13:09:54;11.87;;;7.10;;
14883;SDS011;7534;50.762;7.000;2022-12-17T13:12:27;13.47;;;7.80;;
14883;SDS011;7534;50.762;7.000;2022-12-17T13:17:32;11.87;;;7.03;;
14883;SDS011;7534;50.762;7.000;2022-12-17T13:22:52;13.77;;;7.90;;
14883;SDS011;7534;50.762;7.000;2022-12-17T13:28:02;13.63;;;7.77;;
14883;SDS011;7534;50.762;7.000;2022-12-17T13:30:31;13.70;;;8.17;;
14883;SDS011;7534;50.762;7.000;2022-12-17T13:35:42;15.27;;;8.10;;
14883;SDS011;7534;50.762;7.000;2022-12-17T13:41:19;11.87;;;7.13;;
14883;SDS011;7534;50.762;7.000;2022-12-17T13:43:53;13.70;;;7.60;;
14883;SDS011;7534;50.762;7.000;2022-12-17T13:46:23;14.80;;;7.33;;
14883;SDS011;7534;50.762;7.000;2022-12-17T13:49:02;14.10;;;7.20;;
14883;SDS011;7534;50.762;7.000;2022-12-17T13:51:31;14.47;;;8.00;;
14883;SDS011;7534;50.762;7.000;2022-12-17T13:54:00;18.30;;;7.90;;
14883;SDS011;7534;50.762;7.000;2022-12-17T13:56:32;13.43;;;7.27;;
14883;SDS011;7534;50.762;7.000;2022-12-17T13:59:01;12.30;;;7.10;;
14883;SDS011;7534;50.762;7.000;2022-12-17T14:01:29;13.97;;;7.30;;
14883;SDS011;7534;50.762;7.000;2022-12-17T14:03:59;16.13;;;9.10;;
14883;SDS011;7534;50.762;7.000;2022-12-17T14:06:32;11.77;;;7.03;;
14883;SDS011;7534;50.762;7.000;2022-12-17T14:09:01;14.93;;;7.63;;
14883;SDS011;7534;50.762;7.000;2022-12-17T14:11:27;13.97;;;7.70;;
14883;SDS011;7534;50.762;7.000;2022-12-17T14:14:33;15.40;;;8.30;;
14883;SDS011;7534;50.762;7.000;2022-12-17T14:17:04;12.73;;;7.57;;
14883;SDS011;7534;50.762;7.000;2022-12-17T14:19:30;14.53;;;7.90;;
14883;SDS011;7534;50.762;7.000;2022-12-17T14:21:58;14.63;;;8.30;;
14883;SDS011;7534;50.762;7.000;2022-12-17T14:24:25;15.43;;;8.13;;
14883;SDS011;7534;50.762;7.000;2022-12-17T14:26:59;15.50;;;7.93;;
14883;SDS011;7534;50.762;7.000;2022-12-17T14:29:26;15.93;;;7.77;;
14883;SDS011;7534;50.762;7.000;2022-12-17T14:31:59;12.60;;;7.37;;
14883;SDS011;7534;50.762;7.000;2022-12-17T14:34:45;14.97;;;8.50;;
14883;SDS011;7534;50.762;7.000;2022-12-17T14:37:12;12.30;;;7.77;;
14883;SDS011;7534;50.762;7.000;2022-12-17T14:39:49;14.60;;;8.50;;
14883;SDS011;7534;50.762;7.000;2022-12-17T14:42:23;15.47;;;8.10;;
14883;SDS011;7534;50.762;7.000;2022-12-17T14:44:54;13.93;;;8.03;;
14883;SDS011;7534;50.762;7.000;2022-12-17T14:47:30;14.50;;;8.20;;
14883;SDS011;7534;50.762;7.000;2022-12-17T14:50:06;16.53;;;8.63;;
14883;SDS011;7534;50.762;7.000;2022-12-17T14:58:13;15.27;;;8.10;;
14883;SDS011;7534;50.762;7.000;2022-12-17T15:00:59;15.47;;;8.07;;
14883;SDS011;7534;50.762;7.000;2022-12-17T15:03:33;14.30;;;8.03;;
14883;SDS011;7534;50.762;7.000;2022-12-17T15:06:05;15.40;;;8.30;;
14883;SDS011;7534;50.762;7.000;2022-12-17T15:08:35;14.03;;;8.13;;
14883;SDS011;7534;50.762;7.000;2022-12-17T15:11:05;18.63;;;11.80;;
14883;SDS011;7534;50.762;7.000;2022-12-17T15:13:31;20.63;;;13.20;;
14883;SDS011;7534;50.762;7.000;2022-12-17T15:15:57;18.73;;;10.67;;
14883;SDS011;7534;50.762;7.000;2022-12-17T15:18:23;16.03;;;9.67;;
14883;SDS011;7534;50.762;7.000;2022-12-17T15:20:49;18.60;;;9.80;;
14883;SDS011;7534;50.762;7.000;2022-12-17T15:23:16;17.47;;;9.17;;
14883;SDS011;7534;50.762;7.000;2022-12-17T15:25:45;18.37;;;8.93;;
14883;SDS011;7534;50.762;7.000;2022-12-17T15:28:13;16.97;;;9.70;;
14883;SDS011;7534;50.762;7.000;2022-12-17T15:30:40;18.13;;;9.57;;
14883;SDS011;7534;50.762;7.000;2022-12-17T15:33:06;17.60;;;9.80;;
14883;SDS011;7534;50.762;7.000;2022-12-17T15:35:33;17.60;;;9.13;;
14883;SDS011;7534;50.762;7.000;2022-12-17T15:38:01;20.33;;;10.17;;
14883;SDS011;7534;50.762;7.000;2022-12-17T15:40:28;22.10;;;10.00;;
14883;SDS011;7534;50.762;7.000;2022-12-17T15:42:54;19.00;;;9.70;;
14883;SDS011;7534;50.762;7.000;2022-12-17T15:45:36;19.30;;;9.17;;
14883;SDS011;7534;50.762;7.000;2022-12-17T15:48:13;19.93;;;9.93;;
14883;SDS011;7534;50.762;7.000;2022-12-17T15:50:42;18.87;;;10.17;;
14883;SDS011;7534;50.762;7.000;2022-12-17T15:53:09;20.27;;;9.90;;
14883;SDS011;7534;50.762;7.000;2022-12-17T15:55:35;15.97;;;9.20;;
14883;SDS011;7534;50.762;7.000;2022-12-17T15:58:02;17.93;;;8.77;;
14883;SDS011;7534;50.762;7.000;2022-12-17T16:00:29;15.93;;;8.87;;
14883;SDS011;7534;50.762;7.000;2022-12-17T16:02:55;17.50;;;9.53;;
14883;SDS011;7534;50.762;7.000;2022-12-17T16:05:20;17.10;;;9.30;;
14883;SDS011;7534;50.762;7.000;2022-12-17T16:07:47;16.60;;;9.57;;
14883;SDS011;7534;50.762;7.000;2022-12-17T16:10:15;19.97;;;9.57;;
14883;SDS011;7534;50.762;7.000;2022-12-17T16:12:42;21.53;;;10.63;;
14883;SDS011;7534;50.762;7.000;2022-12-17T16:15:09;18.23;;;9.97;;
14883;SDS011;7534;50.762;7.000;2022-12-17T16:17:36;18.67;;;10.20;;
14883;SDS011;7534;50.762;7.000;2022-12-17T16:20:02;21.67;;;11.20;;
14883;SDS011;7534;50.762;7.000;2022-12-17T16:22:30;18.17;;;10.33;;
14883;SDS011;7534;50.762;7.000;2022-12-17T16:24:55;22.47;;;10.17;;
14883;SDS011;7534;50.762;7.000;2022-12-17T16:27:21;18.70;;;9.67;;
14883;SDS011;7534;50.762;7.000;2022-12-17T16:29:47;20.60;;;10.60;;
14883;SDS011;7534;50.762;7.000;2022-12-17T16:32:14;17.43;;;9.60;;
14883;SDS011;7534;50.762;7.000;2022-12-17T16:34:41;20.33;;;10.60;;
14883;SDS011;7534;50.762;7.000;2022-12-17T16:37:07;19.53;;;11.00;;
14883;SDS011;7534;50.762;7.000;2022-12-17T16:39:33;21.53;;;10.63;;
14883;SDS011;7534;50.762;7.000;2022-12-17T16:41:59;20.97;;;12.07;;
14883;SDS011;7534;50.762;7.000;2022-12-17T16:44:25;22.70;;;12.10;;
14883;SDS011;7534;50.762;7.000;2022-12-17T16:46:50;20.47;;;12.00;;
14883;SDS011;7534;50.762;7.000;2022-12-17T16:49:20;21.97;;;11.73;;
14883;SDS011;7534;50.762;7.000;2022-12-17T16:51:48;19.97;;;11.53;;
14883;SDS011;7534;50.762;7.000;2022-12-17T16:54:18;24.70;;;11.77;;
14883;SDS011;7534;50.762;7.000;2022-12-17T16:56:47;22.83;;;11.63;;
14883;SDS011;7534;50.762;7.000;2022-12-17T16:59:15;23.43;;;12.50;;
14883;SDS011;7534;50.762;7.000;2022-12-17T17:01:42;23.40;;;12.67;;
14883;SDS011;7534;50.762;7.000;2022-12-17T17:04:11;24.07;;;13.20;;
14883;SDS011;7534;50.762;7.000;2022-12-17T17:06:44;24.00;;;13.03;;
14883;SDS011;7534;50.762;7.000;2022-12-17T17:09:20;23.73;;;12.57;;
14883;SDS011;7534;50.762;7.000;2022-12-17T17:11:48;21.57;;;12.07;;
14883;SDS011;7534;50.762;7.000;2022-12-17T17:14:15;25.03;;;13.07;;
14883;SDS011;7534;50.762;7.000;2022-12-17T17:16:41;23.33;;;13.13;;
14883;SDS011;7534;50.762;7.000;2022-12-17T17:19:08;21.87;;;11.57;;
14883;SDS011;7534;50.762;7.000;2022-12-17T17:21:35;26.07;;;13.27;;
14883;SDS011;7534;50.762;7.000;2022-12-17T17:24:10;25.07;;;13.17;;
14883;SDS011;7534;50.762;7.000;2022-12-17T17:26:39;22.97;;;11.60;;
14883;SDS011;7534;50.762;7.000;2022-12-17T17:29:06;27.70;;;13.70;;
14883;SDS011;7534;50.762;7.000;2022-12-17T17:31:33;25.97;;;13.43;;
14883;SDS011;7534;50.762;7.000;2022-12-17T17:33:59;31.03;;;15.03;;
14883;SDS011;7534;50.762;7.000;2022-12-17T17:36:28;30.87;;;15.23;;